This is the latest recevied weather packets stored in our database for station/object SQ5JP-4. If no packets are shown the sender has not sent any weather packets the latest 10 day(s).
| Time | Temp. | Humidity | Pressure | Rain* | Wind** | Luminosity | Snow |
|---|---|---|---|---|---|---|---|
| 1777052672 | 12.78° C | 82% | 993.2 hPa | - | - | - | - |
| 1777051772 | 13.33° C | 75% | 993.1 hPa | - | - | - | - |
| 1777050872 | 13.89° C | 71% | 993 hPa | - | - | - | - |
| 1777049972 | 13.89° C | 67% | 993.1 hPa | - | - | - | - |
| 1777049072 | 14.44° C | 65% | 993.2 hPa | - | - | - | - |
| 1777048172 | 15° C | 63% | 993.1 hPa | - | - | - | - |
| 1777047272 | 15° C | 60% | 993.3 hPa | - | - | - | - |
| 1777046371 | 15.56° C | 59% | 993.2 hPa | - | - | - | - |
| 1777045471 | 15.56° C | 58% | 993.3 hPa | - | - | - | - |
| 1777044571 | 15.56° C | 58% | 993.4 hPa | - | - | - | - |
| 1777043671 | 15.56° C | 56% | 993.6 hPa | - | - | - | - |
| 1777042771 | 16.11° C | 55% | 993.7 hPa | - | - | - | - |
| 1777041870 | 15.56° C | 56% | 993.8 hPa | - | - | - | - |
| 1777040970 | 15.56° C | 55% | 993.8 hPa | - | - | - | - |
| 1777039172 | 16.11° C | 52% | 993.8 hPa | - | - | - | - |
| 1777038272 | 16.11° C | 51% | 993.9 hPa | - | - | - | - |
| 1777037371 | 16.11° C | 50% | 993.9 hPa | - | - | - | - |
| 1777036471 | 16.67° C | 49% | 993.9 hPa | - | - | - | - |
| 1777035571 | 17.78° C | 47% | 994.1 hPa | - | - | - | - |
| 1777034671 | 17.78° C | 47% | 994.2 hPa | - | - | - | - |
| 1777033771 | 17.78° C | 48% | 994.2 hPa | - | - | - | - |
| 1777032871 | 17.22° C | 49% | 994.3 hPa | - | - | - | - |
| 1777031971 | 15.56° C | 51% | 994.5 hPa | - | - | - | - |
| 1777031071 | 15° C | 49% | 994.6 hPa | - | - | - | - |
| 1777030171 | 15° C | 49% | 994.6 hPa | - | - | - | - |
* Rain since midnight (hover to see other rain measurements)
** Current wind speed in m/s (hover to see current wind gust speed)